Judenburg, Austria
Current Conditions -  °F | °C
As of 6:50 AM on Thursday 23 Oct 2014 (Local Time) from LOXZ Reporting Station
Light Rain Light Rain  
Wind Chill: 39°   Ceiling: 2500
Heat Index: 39°   Visibility: 9mi
Dew Point: 37°   Wind: 3mph
Humidity: 93%   Direction: NA
Pressure: 29.71"   Gusts: NA
Location:  47.17°N, 14.66°E
Report Text: LOXZ 230450Z VRB03KT 15KM -RA FEW010ST OVC025SC 04/03 Q1006 RMKOVC
Loading
Personal Weather Stations






























Interactive Weather Map
Tropical Storm Tracking
New forecast layout! Learn more

10-Day Weather Forecast

Advertisements
Track Severe Weather on mobile